Current Conditions
Partly Cloudy
Conditions



Pressure
1030.92 (hPa) - 30.44 (inHG)
Visibility

10.0 (km) - 6.2 (miles)
   Temperature
8  °C
46°F
5  °C
Dewpoint
82  %
 Humidity
   Wind Speed
5  km/h
3  kts
3  mph
1.3  m/s
   Wind Direction
 90°
Due East
   Airport Data
LEAS
Location Asturias 50 km (31.08 mi)
Metar :LEAS 211030Z 09003KT 050V160 9999 FEW024 SCT030 BKN046 08/05 Q1031 NOSIG
Tue 21st January 12:30 pm
   Raw Metar Info
Raw METAR is the most common format in the world for the transmission of observational weather data. It is highly standardized through the International Civil Aviation Organization (ICAO), which allows it to be understood throughout most of the world.
   API Info
Data Provided by
https://www.checkwx.com/weather/LEAS
   © Info
CSS/SVG/PHP scripts were developed by weather34.com for use in the weather34 template © 2015-2020

Guide Info provided by Metar-Wikipedia